»·PEaware :: N829EW KHCR-KPDX

N829EW :: KHCR-KPDX

FLIGHT INFORMATION

Flight Status: Arrived
Operator: Privately registered:
United States
More flights under this callsign
Pilot: Eric W. (14379)
Aircraft: BEECH AIRCRAFT SUPER KING AIR 350
(B350)
More flights by this aircraft type
Origin: KHCR Heber Valley
United States
Destination: KPDX Portland Intl
United States
More flights between these airports :: More routes between these airports
Route: +TCH JOTBA HHOOD4
File this flight plan on PilotEdge
Remarks:
Altitude:
(Current/Filed)
26,000ft
Speed:
(Current/Filed)
300kts
Departed: 09-Oct-19 04:04 PM
Arrived: 09-Oct-19 06:22 PM
Distance/Time
Traveled:
576nm/2:18
Distance/Time
To Go:
Arrived

Flight Plot

Page will automatically refresh every two minutes.

Flight plan parsing failed; only flown route is shown


Map Options




Map Legend


Flown Route
Filed Route
Departure Airport
Arrival Airport
Navaid (VOR, NDB)
Fix

Horizontal Profiles

Position Reports

Time Latitude Longitude Heading Altitude Ground
Speed
09-Oct-19 15:28 40.476052 -111.432096 49 5608ft 0kts
09-Oct-19 15:29 40.476052 -111.432096 49 5608ft 0kts
09-Oct-19 15:30 40.476052 -111.432096 49 5608ft 0kts
09-Oct-19 15:31 40.476052 -111.432096 49 5608ft 0kts
09-Oct-19 15:32 40.476052 -111.432096 49 5608ft 0kts
09-Oct-19 15:33 40.476052 -111.432096 49 5608ft 0kts
09-Oct-19 15:34 40.476052 -111.432096 49 5608ft 0kts
09-Oct-19 15:35 40.476052 -111.432096 49 5608ft 0kts
09-Oct-19 15:36 40.476052 -111.432096 49 5608ft 0kts
09-Oct-19 15:37 40.476052 -111.432096 49 5608ft 0kts
09-Oct-19 15:38 40.476052 -111.432096 49 5608ft 0kts
09-Oct-19 15:39 40.476052 -111.432096 49 5608ft 0kts
09-Oct-19 15:40 40.476052 -111.432096 49 5608ft 0kts
09-Oct-19 15:41 40.476052 -111.432096 49 5608ft 0kts
09-Oct-19 15:42 40.476052 -111.432096 49 5608ft 0kts
09-Oct-19 15:43 40.476052 -111.432096 49 5608ft 0kts
09-Oct-19 15:44 40.476052 -111.432096 49 5608ft 0kts
09-Oct-19 15:45 40.476052 -111.432096 49 5608ft 0kts
09-Oct-19 15:46 40.476052 -111.432096 50 5608ft 0kts
09-Oct-19 15:47 40.476052 -111.432096 49 5608ft 0kts
09-Oct-19 15:48 40.476052 -111.432096 49 5608ft 0kts
09-Oct-19 15:49 40.476052 -111.432096 49 5608ft 0kts
09-Oct-19 15:50 40.476052 -111.432096 49 5608ft 0kts
09-Oct-19 15:51 40.476052 -111.432096 49 5608ft 0kts
09-Oct-19 15:52 40.476052 -111.432096 49 5608ft 0kts
09-Oct-19 15:53 40.476112 -111.432074 350 5608ft 2kts
09-Oct-19 15:54 40.476309 -111.434886 230 5594ft 11kts
09-Oct-19 15:55 40.474897 -111.437145 330 5587ft 0kts
09-Oct-19 15:56 40.474897 -111.437145 329 5587ft 0kts
09-Oct-19 15:57 40.474897 -111.437145 330 5587ft 0kts
09-Oct-19 15:58 40.474897 -111.437145 330 5587ft 0kts
09-Oct-19 15:59 40.474897 -111.437145 330 5587ft 0kts
09-Oct-19 16:00 40.475293 -111.437620 321 5585ft 0kts
09-Oct-19 16:01 40.475368 -111.437703 319 5585ft 4kts
09-Oct-19 16:02 40.475860 -111.437986 47 5584ft 3kts
09-Oct-19 16:03 40.495166 -111.411051 22 6531ft 138kts
09-Oct-19 16:04 40.536582 -111.410817 2 8595ft 158kts
09-Oct-19 16:05 40.579435 -111.409022 354 10695ft 167kts
09-Oct-19 16:06 40.616410 -111.435840 281 11967ft 165kts
09-Oct-19 16:07 40.637025 -111.490189 290 13535ft 167kts
09-Oct-19 16:08 40.659860 -111.542617 288 15380ft 163kts
09-Oct-19 16:09 40.682048 -111.593483 285 17237ft 158kts
09-Oct-19 16:10 40.703325 -111.642372 284 19073ft 153kts
09-Oct-19 16:11 40.724220 -111.690448 283 20631ft 151kts
09-Oct-19 16:12 40.744586 -111.737366 282 22227ft 147kts
09-Oct-19 16:13 40.764634 -111.783608 282 23813ft 143kts
09-Oct-19 16:14 40.783846 -111.827994 281 25277ft 140kts
09-Oct-19 16:15 40.803873 -111.874532 283 26096ft 166kts
09-Oct-19 16:16 40.828812 -111.932236 285 26076ft 193kts
09-Oct-19 16:17 40.859515 -111.995841 291 26064ft 219kts
09-Oct-19 16:18 40.897617 -112.063440 296 26069ft 239kts
09-Oct-19 16:19 40.939557 -112.136038 297 26069ft 256kts
09-Oct-19 16:20 40.982299 -112.210058 298 26067ft 267kts
09-Oct-19 16:21 41.029249 -112.291578 298 26064ft 276kts
09-Oct-19 16:22 41.076010 -112.372989 298 26061ft 280kts
09-Oct-19 16:24 41.120152 -112.450045 298 26057ft 282kts
09-Oct-19 16:25 41.167838 -112.533527 299 26057ft 286kts
09-Oct-19 16:26 41.216071 -112.618178 299 26055ft 288kts
09-Oct-19 16:27 41.263970 -112.702485 299 26068ft 289kts
09-Oct-19 16:28 41.312503 -112.788135 299 26084ft 290kts
09-Oct-19 16:29 41.361027 -112.873992 299 26095ft 288kts
09-Oct-19 16:30 41.409238 -112.959592 299 26095ft 287kts
09-Oct-19 16:31 41.456943 -113.044492 300 26099ft 286kts
09-Oct-19 16:32 41.504380 -113.129150 300 26099ft 285kts
09-Oct-19 16:33 41.551587 -113.213645 300 26075ft 285kts
09-Oct-19 16:34 41.598948 -113.298645 301 26078ft 285kts
09-Oct-19 16:35 41.646112 -113.383522 301 26077ft 284kts
09-Oct-19 16:36 41.693095 -113.468313 301 26076ft 284kts
09-Oct-19 16:37 41.739959 -113.553126 302 26075ft 283kts
09-Oct-19 16:38 41.786762 -113.638079 302 26073ft 283kts
09-Oct-19 16:39 41.833414 -113.722959 302 26084ft 284kts
09-Oct-19 16:40 41.880230 -113.808399 302 26083ft 284kts
09-Oct-19 16:41 41.927116 -113.894208 302 26081ft 285kts
09-Oct-19 16:42 41.973874 -113.980020 302 26081ft 284kts
09-Oct-19 16:43 42.020596 -114.066014 302 26088ft 284kts
09-Oct-19 16:43 42.059292 -114.137439 302 26098ft 284kts
09-Oct-19 16:44 42.105281 -114.222530 302 26112ft 283kts
09-Oct-19 16:46 42.159262 -114.322709 303 26116ft 284kts
09-Oct-19 16:47 42.205760 -114.409258 303 26116ft 285kts
09-Oct-19 16:47 42.244420 -114.481418 303 26116ft 285kts
09-Oct-19 16:48 42.290846 -114.568314 304 26114ft 286kts
09-Oct-19 16:49 42.335773 -114.652631 304 26114ft 286kts
09-Oct-19 16:51 42.385686 -114.746583 305 26121ft 288kts
09-Oct-19 16:51 42.424699 -114.820218 305 26120ft 289kts
09-Oct-19 16:52 42.471356 -114.908520 306 26120ft 289kts
09-Oct-19 16:53 42.518241 -114.997518 306 26118ft 289kts
09-Oct-19 16:54 42.564887 -115.086327 306 26117ft 289kts
09-Oct-19 16:55 42.611439 -115.175218 307 26111ft 289kts
09-Oct-19 16:56 42.657993 -115.264383 307 26123ft 288kts
09-Oct-19 16:57 42.704173 -115.353092 307 26151ft 287kts
09-Oct-19 16:58 42.750341 -115.442046 308 26183ft 286kts
09-Oct-19 16:59 42.796365 -115.530995 308 26186ft 287kts
09-Oct-19 17:00 42.842250 -115.619916 308 26173ft 288kts
09-Oct-19 17:01 42.888267 -115.709372 308 26191ft 288kts
09-Oct-19 17:02 42.934107 -115.798745 308 26192ft 290kts
09-Oct-19 17:03 42.980238 -115.888973 308 26180ft 290kts
09-Oct-19 17:04 43.026478 -115.979681 308 26182ft 290kts
09-Oct-19 17:05 43.072336 -116.069948 310 26182ft 289kts
09-Oct-19 17:06 43.117851 -116.159762 310 26202ft 288kts
09-Oct-19 17:07 43.163428 -116.249990 310 26214ft 288kts
09-Oct-19 17:08 43.209010 -116.340517 311 26286ft 287kts
09-Oct-19 17:09 43.254534 -116.431173 311 26277ft 288kts
09-Oct-19 17:10 43.300035 -116.522104 311 26266ft 289kts
09-Oct-19 17:11 43.345425 -116.613059 311 26254ft 289kts
09-Oct-19 17:12 43.390627 -116.703937 311 26268ft 287kts
09-Oct-19 17:13 43.435629 -116.794697 311 26267ft 286kts
09-Oct-19 17:14 43.480422 -116.885290 311 26265ft 285kts
09-Oct-19 17:15 43.524882 -116.975498 311 26274ft 284kts
09-Oct-19 17:16 43.568966 -117.065249 312 26283ft 282kts
09-Oct-19 17:17 43.612827 -117.154766 312 26294ft 280kts
09-Oct-19 17:18 43.656341 -117.243860 312 26289ft 280kts
09-Oct-19 17:19 43.699777 -117.333062 313 26280ft 279kts
09-Oct-19 17:20 43.743040 -117.422220 313 26292ft 278kts
09-Oct-19 17:21 43.785963 -117.510924 313 26294ft 277kts
09-Oct-19 17:22 43.828620 -117.599320 314 26308ft 275kts
09-Oct-19 17:23 43.870897 -117.687214 313 26308ft 275kts
09-Oct-19 17:24 43.913301 -117.775662 314 26315ft 274kts
09-Oct-19 17:25 43.955452 -117.863791 314 26318ft 274kts
09-Oct-19 17:26 43.997602 -117.952220 314 26312ft 274kts
09-Oct-19 17:27 44.039596 -118.040560 313 26312ft 274kts
09-Oct-19 17:28 44.081379 -118.128771 314 26310ft 273kts
09-Oct-19 17:29 44.123542 -118.217969 313 25321ft 281kts
09-Oct-19 17:30 44.166830 -118.309883 312 23858ft 287kts
09-Oct-19 17:31 44.210738 -118.403472 312 22409ft 290kts
09-Oct-19 17:32 44.254109 -118.496210 312 22332ft 282kts
09-Oct-19 17:33 44.296689 -118.587514 312 22346ft 279kts
09-Oct-19 17:34 44.338487 -118.677453 312 22340ft 279kts
09-Oct-19 17:35 44.380635 -118.768328 312 22345ft 278kts
09-Oct-19 17:36 44.422576 -118.859136 312 22341ft 278kts
09-Oct-19 17:37 44.464522 -118.950204 312 22341ft 278kts
09-Oct-19 17:38 44.506264 -119.041142 312 22340ft 277kts
09-Oct-19 17:39 44.547732 -119.131778 312 22344ft 276kts
09-Oct-19 17:40 44.589105 -119.222421 312 22349ft 275kts
09-Oct-19 17:41 44.630325 -119.313080 313 22341ft 275kts
09-Oct-19 17:42 44.671468 -119.403833 313 22348ft 275kts
09-Oct-19 17:43 44.712405 -119.494439 313 22347ft 273kts
09-Oct-19 17:44 44.753219 -119.585025 313 22337ft 273kts
09-Oct-19 17:45 44.793721 -119.675255 312 22346ft 273kts
09-Oct-19 17:46 44.831990 -119.760725 312 22342ft 273kts
09-Oct-19 17:47 44.872554 -119.851622 313 22339ft 273kts
09-Oct-19 17:48 44.912919 -119.942347 313 22353ft 271kts
09-Oct-19 17:49 44.953103 -120.032989 313 22377ft 271kts
09-Oct-19 17:50 44.993074 -120.123409 313 22370ft 271kts
09-Oct-19 17:51 45.032981 -120.213957 313 22359ft 272kts
09-Oct-19 17:52 45.073084 -120.305276 313 22361ft 271kts
09-Oct-19 17:53 45.112916 -120.396248 313 22386ft 271kts
09-Oct-19 17:54 45.152740 -120.487496 313 22382ft 274kts
09-Oct-19 17:55 45.190504 -120.581042 310 22379ft 277kts
09-Oct-19 17:56 45.227733 -120.677441 310 22370ft 278kts
09-Oct-19 17:57 45.265095 -120.774558 310 22359ft 279kts
09-Oct-19 17:58 45.302712 -120.872621 309 21025ft 285kts
09-Oct-19 17:59 45.340729 -120.972163 308 19550ft 288kts
09-Oct-19 18:00 45.379105 -121.073020 307 18061ft 291kts
09-Oct-19 18:01 45.417657 -121.174441 306 16462ft 292kts
09-Oct-19 18:02 45.444816 -121.284871 294 14725ft 293kts
09-Oct-19 18:03 45.466719 -121.395908 293 13264ft 288kts
09-Oct-19 18:04 45.488077 -121.503957 292 12478ft 292kts
09-Oct-19 18:05 45.510156 -121.615864 290 11013ft 279kts
09-Oct-19 18:06 45.529760 -121.720566 279 10955ft 285kts
09-Oct-19 18:07 45.533887 -121.835048 277 10979ft 290kts
09-Oct-19 18:08 45.537948 -121.950647 277 11002ft 290kts
09-Oct-19 18:09 45.558421 -122.054215 290 10697ft 284kts
09-Oct-19 18:10 45.580359 -122.159158 288 9217ft 272kts
09-Oct-19 18:11 45.600170 -122.254865 287 9004ft 230kts
09-Oct-19 18:12 45.619009 -122.346045 286 8385ft 247kts
09-Oct-19 18:13 45.635793 -122.427762 287 7833ft 224kts
09-Oct-19 18:14 45.652124 -122.508232 287 6422ft 223kts
09-Oct-19 18:15 45.670859 -122.586819 292 4899ft 214kts
09-Oct-19 18:16 45.689331 -122.658834 275 3644ft 176kts
09-Oct-19 18:17 45.658681 -122.685849 179 2430ft 142kts
09-Oct-19 18:18 45.624799 -122.663971 134 1214ft 151kts
09-Oct-19 18:19 45.603868 -122.618996 116 408ft 129kts
09-Oct-19 18:20 45.589571 -122.582174 119 27ft 54kts
09-Oct-19 18:21 45.586259 -122.576447 206 27ft 0kts
09-Oct-19 18:22 45.586932 -122.578636 298 27ft 13kts
09-Oct-19 18:23 45.588218 -122.582154 266 27ft 11kts
09-Oct-19 18:24 45.587605 -122.584119 25 27ft 0kts
09-Oct-19 18:25 45.587605 -122.584118 25 27ft 0kts
09-Oct-19 18:26 45.587605 -122.584118 25 27ft 0kts
09-Oct-19 18:27 45.587605 -122.584118 25 27ft 0kts
09-Oct-19 18:28 45.587605 -122.584118 25 27ft 0kts
09-Oct-19 18:29 45.587605 -122.584118 25 27ft 0kts

Navigation Log

Ident Type
Flight plan parsing failed, navigation log unavailable